createdAt,value
2022-10-22T00:00:00.301Z,11.51
2022-10-22T00:02:28.035Z,11.47
2022-10-22T00:04:57.196Z,11.44
2022-10-22T00:07:24.288Z,11.41
2022-10-22T00:09:51.612Z,11.39
2022-10-22T00:12:19.002Z,11.38
2022-10-22T00:14:46.758Z,11.36
2022-10-22T00:17:13.949Z,11.36
2022-10-22T00:19:41.030Z,11.32
2022-10-22T00:22:10.139Z,11.32
2022-10-22T00:24:38.508Z,11.31
2022-10-22T00:27:06.533Z,11.31
2022-10-22T00:29:33.571Z,11.27
2022-10-22T00:32:00.337Z,11.28
2022-10-22T00:34:27.211Z,11.27
2022-10-22T00:36:54.415Z,11.22
2022-10-22T00:39:23.791Z,11.20
2022-10-22T00:41:53.156Z,11.17
2022-10-22T00:44:57.449Z,11.16
2022-10-22T00:47:26.126Z,11.15
2022-10-22T00:49:54.042Z,11.12
2022-10-22T00:52:22.141Z,11.09
2022-10-22T00:54:49.295Z,11.06
2022-10-22T00:57:17.792Z,11.05
2022-10-22T00:59:45.571Z,11.03
2022-10-22T01:02:12.520Z,10.99
2022-10-22T01:04:40.427Z,10.98
2022-10-22T01:07:07.453Z,10.95
2022-10-22T01:09:50.445Z,10.95
2022-10-22T01:12:42.184Z,10.95
2022-10-22T01:15:43.280Z,10.89
2022-10-22T01:18:38.151Z,10.89
2022-10-22T01:21:15.438Z,10.87
2022-10-22T01:24:09.408Z,10.84
2022-10-22T01:26:58.209Z,10.82
2022-10-22T01:29:39.115Z,10.79
2022-10-22T01:32:17.127Z,10.75
2022-10-22T01:34:49.483Z,10.74
2022-10-22T01:37:20.791Z,10.74
2022-10-22T01:39:49.679Z,10.72
2022-10-22T01:42:16.593Z,10.71
2022-10-22T01:44:43.611Z,10.69
2022-10-22T01:47:25.655Z,10.65
2022-10-22T01:50:07.499Z,10.66
2022-10-22T01:52:42.984Z,10.61
2022-10-22T01:55:29.715Z,10.60
2022-10-22T01:58:24.147Z,10.60
2022-10-22T02:01:06.484Z,10.58
2022-10-22T02:03:44.145Z,10.58
2022-10-22T02:06:18.840Z,10.58
2022-10-22T02:08:48.903Z,10.53
2022-10-22T02:11:16.484Z,10.52
2022-10-22T02:13:48.429Z,10.53
2022-10-22T02:16:28.773Z,10.51
2022-10-22T02:19:01.708Z,10.50
2022-10-22T02:21:28.775Z,10.49
2022-10-22T02:23:55.906Z,10.47
2022-10-22T02:26:46.439Z,10.44
2022-10-22T02:29:25.590Z,10.43
2022-10-22T02:31:57.004Z,10.43
2022-10-22T02:34:27.885Z,10.37
2022-10-22T02:36:55.628Z,10.34
2022-10-22T02:39:23.548Z,10.33
2022-10-22T02:41:50.421Z,10.31
2022-10-22T02:44:21.361Z,10.30
2022-10-22T02:46:48.834Z,10.30
2022-10-22T02:49:15.681Z,10.29
2022-10-22T02:51:42.600Z,10.27
2022-10-22T02:54:09.584Z,10.27
2022-10-22T02:56:36.706Z,10.26
2022-10-22T02:59:10.854Z,10.25
2022-10-22T03:01:39.367Z,10.23
2022-10-22T03:04:09.429Z,10.22
2022-10-22T03:06:36.630Z,10.22
2022-10-22T03:09:03.861Z,10.22
2022-10-22T03:11:30.839Z,10.18
2022-10-22T03:13:57.980Z,10.16
2022-10-22T03:16:24.890Z,10.15
2022-10-22T03:18:51.811Z,10.15
2022-10-22T03:21:34.351Z,10.14
2022-10-22T03:24:05.897Z,10.14
2022-10-22T03:26:33.854Z,10.15
2022-10-22T03:29:01.326Z,10.11
2022-10-22T03:31:28.486Z,10.11
2022-10-22T03:33:55.621Z,10.10
2022-10-22T03:36:22.535Z,10.06
2022-10-22T03:38:49.930Z,10.06
2022-10-22T03:41:17.154Z,10.06
2022-10-22T03:43:49.601Z,10.02
2022-10-22T03:46:16.537Z,10.00
2022-10-22T03:48:43.294Z,9.98
2022-10-22T03:51:10.538Z,9.99
2022-10-22T03:53:37.549Z,9.99
2022-10-22T03:56:10.073Z,9.96
2022-10-22T03:58:38.250Z,9.98
2022-10-22T04:01:10.652Z,9.96
2022-10-22T04:03:37.936Z,9.97
2022-10-22T04:06:13.889Z,9.96
2022-10-22T04:08:42.427Z,9.94
2022-10-22T04:11:10.425Z,9.93
2022-10-22T04:13:37.683Z,9.91
2022-10-22T04:16:27.581Z,9.89
2022-10-22T04:18:57.138Z,9.89
2022-10-22T04:21:24.397Z,9.85
2022-10-22T04:23:53.160Z,9.84
2022-10-22T04:26:21.116Z,9.84
2022-10-22T04:28:50.130Z,9.81
2022-10-22T04:31:22.858Z,9.80
2022-10-22T04:33:58.635Z,9.77
2022-10-22T04:36:26.332Z,9.78
2022-10-22T04:38:56.080Z,9.76
2022-10-22T04:41:28.952Z,9.75
2022-10-22T04:43:56.593Z,9.74
2022-10-22T04:46:25.453Z,9.74
2022-10-22T04:48:52.842Z,9.70
2022-10-22T04:51:21.751Z,9.67
2022-10-22T04:53:49.081Z,9.68
2022-10-22T04:56:22.800Z,9.66
2022-10-22T04:58:51.826Z,9.65
2022-10-22T05:01:22.089Z,9.65
2022-10-22T05:03:50.554Z,9.63
2022-10-22T05:06:18.391Z,9.61
2022-10-22T05:08:45.353Z,9.60
2022-10-22T05:11:12.243Z,9.61
2022-10-22T05:13:39.135Z,9.59
2022-10-22T05:16:06.545Z,9.58
2022-10-22T05:18:38.153Z,9.57
2022-10-22T05:21:08.632Z,9.56
2022-10-22T05:23:35.564Z,9.57
2022-10-22T05:26:04.126Z,9.53
2022-10-22T05:28:31.219Z,9.50
2022-10-22T05:30:59.711Z,9.50
2022-10-22T05:33:28.416Z,9.48
2022-10-22T05:35:55.555Z,9.48
2022-10-22T05:38:22.999Z,9.46
2022-10-22T05:41:06.759Z,9.47
2022-10-22T05:43:34.200Z,9.47
2022-10-22T05:46:09.101Z,9.46
2022-10-22T05:48:36.370Z,9.45
2022-10-22T05:51:05.623Z,9.44
2022-10-22T05:53:34.482Z,9.42
2022-10-22T05:56:03.211Z,9.40
2022-10-22T05:58:30.506Z,9.36
2022-10-22T06:01:16.908Z,9.35
2022-10-22T06:03:44.665Z,9.38
2022-10-22T06:06:26.365Z,9.39
2022-10-22T06:08:54.760Z,9.39
2022-10-22T06:11:23.331Z,9.40
2022-10-22T06:13:51.267Z,9.40
2022-10-22T06:16:18.514Z,9.39
2022-10-22T06:18:45.513Z,9.41
2022-10-22T06:21:14.478Z,9.39
2022-10-22T06:23:43.942Z,9.39
2022-10-22T06:26:11.408Z,9.41
2022-10-22T06:28:38.817Z,9.41
2022-10-22T06:31:06.097Z,9.37
2022-10-22T06:33:34.357Z,9.38
2022-10-22T06:36:07.681Z,9.40
2022-10-22T06:38:35.264Z,9.40
2022-10-22T06:41:04.116Z,9.41
2022-10-22T06:43:31.009Z,9.44
2022-10-22T06:46:03.004Z,9.44
2022-10-22T06:48:30.617Z,9.45
2022-10-22T06:51:03.132Z,9.44
2022-10-22T06:53:30.483Z,9.46
2022-10-22T06:55:57.611Z,9.49
2022-10-22T06:58:24.509Z,9.48
2022-10-22T07:01:01.773Z,9.51
2022-10-22T07:03:28.751Z,9.52
2022-10-22T07:05:55.702Z,9.57
2022-10-22T07:08:22.623Z,9.60
2022-10-22T07:10:49.567Z,9.64
2022-10-22T07:13:16.482Z,9.65
2022-10-22T07:15:43.305Z,9.70
2022-10-22T07:18:10.167Z,9.74
2022-10-22T07:20:37.022Z,9.77
2022-10-22T07:23:03.859Z,9.80
2022-10-22T07:25:30.700Z,9.84
2022-10-22T07:27:58.877Z,9.90
2022-10-22T07:30:25.760Z,9.95
2022-10-22T07:32:52.587Z,9.98
2022-10-22T07:35:19.518Z,10.03
2022-10-22T07:37:46.338Z,10.06
2022-10-22T07:40:13.147Z,10.09
2022-10-22T07:42:39.975Z,10.13
2022-10-22T07:45:07.492Z,10.16
2022-10-22T07:47:34.687Z,10.20
2022-10-22T07:50:01.493Z,10.24
2022-10-22T07:52:28.359Z,10.26
2022-10-22T07:54:55.287Z,10.29
2022-10-22T07:57:22.148Z,10.29
2022-10-22T07:59:49.015Z,10.33
2022-10-22T08:02:15.823Z,10.35
2022-10-22T08:04:42.645Z,10.39
2022-10-22T08:07:09.515Z,10.42
2022-10-22T08:09:36.409Z,10.47
2022-10-22T08:12:03.341Z,10.51
2022-10-22T08:14:31.112Z,10.55
2022-10-22T08:16:58.039Z,10.60
2022-10-22T08:19:25.251Z,10.63
2022-10-22T08:21:52.195Z,10.67
2022-10-22T08:24:19.024Z,10.69
2022-10-22T08:26:45.946Z,10.72
2022-10-22T08:29:12.797Z,10.74
2022-10-22T08:31:39.592Z,10.79
2022-10-22T08:34:08.398Z,10.81
2022-10-22T08:36:35.287Z,10.84
2022-10-22T08:39:02.148Z,10.87
2022-10-22T08:41:29.170Z,10.91
2022-10-22T08:44:33.768Z,10.93
2022-10-22T08:47:22.284Z,10.97
2022-10-22T08:49:49.829Z,11.00
2022-10-22T08:52:19.019Z,11.03
2022-10-22T08:55:00.803Z,11.06
2022-10-22T08:57:36.065Z,11.11
2022-10-22T09:00:11.146Z,11.14
2022-10-22T09:03:16.206Z,11.19
2022-10-22T09:05:55.288Z,11.23
2022-10-22T09:08:23.304Z,11.28
2022-10-22T09:10:57.670Z,11.32
2022-10-22T09:13:24.774Z,11.36
2022-10-22T09:15:56.223Z,11.42
2022-10-22T09:18:37.363Z,11.45
2022-10-22T09:21:24.122Z,11.49
2022-10-22T09:23:50.950Z,11.54
2022-10-22T09:26:17.895Z,11.59
2022-10-22T09:28:50.869Z,11.63
2022-10-22T09:31:18.399Z,11.66
2022-10-22T09:33:49.109Z,11.69
2022-10-22T09:36:18.664Z,11.73
2022-10-22T09:38:50.462Z,11.77
2022-10-22T09:41:18.968Z,11.79
2022-10-22T09:43:49.601Z,11.83
2022-10-22T09:46:22.899Z,11.86
2022-10-22T09:48:55.875Z,11.89
2022-10-22T09:51:36.526Z,11.91
2022-10-22T09:54:23.163Z,11.92
2022-10-22T09:56:59.011Z,11.94
2022-10-22T09:59:32.292Z,11.97
2022-10-22T10:02:19.742Z,11.97
2022-10-22T10:04:58.043Z,11.99
2022-10-22T10:07:27.797Z,11.99
2022-10-22T10:09:55.214Z,12.01
2022-10-22T10:15:36.663Z,12.04
2022-10-22T10:18:34.332Z,12.04
2022-10-22T10:21:25.674Z,12.08
2022-10-22T10:24:11.393Z,12.10
2022-10-22T10:26:48.852Z,12.10
2022-10-22T10:29:34.485Z,12.13
2022-10-22T10:32:21.082Z,12.16
2022-10-22T10:35:09.263Z,12.19
2022-10-22T10:37:46.683Z,12.22
2022-10-22T10:40:31.817Z,12.26
2022-10-22T10:43:06.709Z,12.30
2022-10-22T10:45:55.926Z,12.32
2022-10-22T10:48:39.399Z,12.37
2022-10-22T10:51:39.879Z,12.40
2022-10-22T10:57:13.825Z,12.47
2022-10-22T11:00:04.849Z,12.51
2022-10-22T11:02:53.365Z,12.54
2022-10-22T11:05:44.328Z,12.57
2022-10-22T11:08:55.058Z,12.60
2022-10-22T11:11:31.861Z,12.63
2022-10-22T11:14:18.603Z,12.65
2022-10-22T11:16:49.695Z,12.67
2022-10-22T11:19:39.591Z,12.70
2022-10-22T11:22:27.027Z,12.70
2022-10-22T11:25:25.581Z,12.72
2022-10-22T11:28:04.660Z,12.73
2022-10-22T11:30:38.523Z,12.75
2022-10-22T11:33:12.921Z,12.75
2022-10-22T11:35:46.528Z,12.75
2022-10-22T11:38:21.203Z,12.76
2022-10-22T11:40:51.022Z,12.76
2022-10-22T11:43:31.004Z,12.77
2022-10-22T11:46:08.535Z,12.77
2022-10-22T11:48:42.757Z,12.80
2022-10-22T11:51:40.375Z,12.79
2022-10-22T11:54:26.113Z,12.80
2022-10-22T11:57:12.962Z,12.80
2022-10-22T11:59:47.558Z,12.79
2022-10-22T12:02:23.618Z,12.82
2022-10-22T12:04:51.080Z,12.82
2022-10-22T12:07:48.594Z,12.82
2022-10-22T12:10:26.918Z,12.83
2022-10-22T12:13:18.244Z,12.83
2022-10-22T12:15:51.904Z,12.85
2022-10-22T12:18:19.045Z,12.85
2022-10-22T12:20:51.235Z,12.85
2022-10-22T12:23:18.899Z,12.86
2022-10-22T12:25:45.855Z,12.87
2022-10-22T12:28:13.338Z,12.88
2022-10-22T12:30:41.978Z,12.89
2022-10-22T12:33:20.358Z,12.90
2022-10-22T12:35:49.112Z,12.92
2022-10-22T12:38:20.451Z,12.93
2022-10-22T12:40:50.321Z,12.95
2022-10-22T12:43:19.890Z,12.96
2022-10-22T12:45:49.748Z,13.00
2022-10-22T12:48:24.379Z,13.02
2022-10-22T12:50:54.863Z,13.04
2022-10-22T12:53:31.183Z,13.07
2022-10-22T12:56:04.025Z,13.07
2022-10-22T12:58:45.940Z,13.10
2022-10-22T13:01:15.879Z,13.11
2022-10-22T13:03:47.834Z,13.13
2022-10-22T13:06:23.251Z,13.14
2022-10-22T13:09:02.414Z,13.16
2022-10-22T13:11:43.433Z,13.17
2022-10-22T13:14:24.568Z,13.19
2022-10-22T13:17:10.948Z,13.20
2022-10-22T13:19:43.216Z,13.20
2022-10-22T13:22:39.518Z,13.23
2022-10-22T13:25:16.321Z,13.23
2022-10-22T13:27:44.599Z,13.25
2022-10-22T13:30:29.225Z,13.25
2022-10-22T13:32:58.878Z,13.25
2022-10-22T13:35:32.518Z,13.27
2022-10-22T13:38:00.365Z,13.28
2022-10-22T13:40:27.651Z,13.27
2022-10-22T13:42:54.553Z,13.26
2022-10-22T13:45:21.477Z,13.26
2022-10-22T13:47:54.431Z,13.26
2022-10-22T13:50:21.803Z,13.25
2022-10-22T13:52:57.196Z,13.26
2022-10-22T13:55:27.566Z,13.24
2022-10-22T13:57:57.490Z,13.24
2022-10-22T14:00:25.176Z,13.22
2022-10-22T14:02:56.951Z,13.20
2022-10-22T14:05:23.964Z,13.20
2022-10-22T14:07:51.286Z,13.18
2022-10-22T14:10:20.939Z,13.17
2022-10-22T14:12:52.370Z,13.16
2022-10-22T14:15:25.653Z,13.14
2022-10-22T14:17:57.090Z,13.13
2022-10-22T14:20:27.879Z,13.12
2022-10-22T14:22:55.507Z,13.10
2022-10-22T14:25:24.881Z,13.10
2022-10-22T14:27:52.514Z,13.11
2022-10-22T14:30:21.743Z,13.08
2022-10-22T14:32:49.465Z,13.06
2022-10-22T14:35:20.249Z,13.04
2022-10-22T14:37:47.381Z,13.03
2022-10-22T14:40:16.924Z,13.02
2022-10-22T14:42:46.790Z,13.01
2022-10-22T14:45:25.500Z,13.01
2022-10-22T14:47:57.321Z,13.00
2022-10-22T14:50:24.947Z,12.98
2022-10-22T14:52:52.098Z,12.98
2022-10-22T14:55:20.000Z,12.99
2022-10-22T14:57:46.860Z,12.97
2022-10-22T15:00:23.351Z,12.95
2022-10-22T15:02:50.233Z,12.95
2022-10-22T15:05:17.846Z,12.94
2022-10-22T15:07:45.621Z,12.92
2022-10-22T15:10:13.017Z,12.92
2022-10-22T15:12:40.081Z,12.89
2022-10-22T15:15:07.562Z,12.88
2022-10-22T15:17:34.717Z,12.86
2022-10-22T15:20:04.243Z,12.87
2022-10-22T15:22:35.178Z,12.86
2022-10-22T15:25:08.044Z,12.84
2022-10-22T15:27:35.605Z,12.85
2022-10-22T15:32:35.231Z,12.83
2022-10-22T15:35:02.789Z,12.82
2022-10-22T15:37:30.898Z,12.84
2022-10-22T15:39:58.699Z,12.83
2022-10-22T15:42:25.831Z,12.83
2022-10-22T15:44:59.333Z,12.81
2022-10-22T15:47:29.649Z,12.81
2022-10-22T15:49:57.161Z,12.82
2022-10-22T15:52:24.324Z,12.79
2022-10-22T15:54:52.919Z,12.78
2022-10-22T15:57:20.045Z,12.78
2022-10-22T15:59:47.302Z,12.79
2022-10-22T16:02:15.535Z,12.77
2022-10-22T16:04:42.988Z,12.77
2022-10-22T16:07:10.296Z,12.76
2022-10-22T16:09:37.621Z,12.75
2022-10-22T16:12:05.139Z,12.75
2022-10-22T16:14:32.299Z,12.74
2022-10-22T16:16:59.985Z,12.75
2022-10-22T16:19:27.931Z,12.71
2022-10-22T16:21:56.611Z,12.73
2022-10-22T16:24:24.152Z,12.71
2022-10-22T16:26:53.204Z,12.69
2022-10-22T16:29:21.171Z,12.72
2022-10-22T16:31:48.630Z,12.69
2022-10-22T16:34:16.542Z,12.71
2022-10-22T16:36:44.751Z,12.70
2022-10-22T16:39:12.766Z,12.71
2022-10-22T16:41:43.806Z,12.70
2022-10-22T16:44:12.410Z,12.69
2022-10-22T16:46:40.177Z,12.69
2022-10-22T16:49:08.833Z,12.69
2022-10-22T16:51:37.314Z,12.70
2022-10-22T16:54:09.915Z,12.69
2022-10-22T16:56:40.459Z,12.66
2022-10-22T16:59:08.877Z,12.64
2022-10-22T17:01:41.220Z,12.63
2022-10-22T17:04:10.432Z,12.62
2022-10-22T17:06:39.847Z,12.60
2022-10-22T17:09:08.147Z,12.57
2022-10-22T17:11:40.099Z,12.55
2022-10-22T17:14:10.640Z,12.53
2022-10-22T17:16:39.086Z,12.50
2022-10-22T17:19:13.152Z,12.48
2022-10-22T17:21:41.352Z,12.44
2022-10-22T17:24:10.625Z,12.40
2022-10-22T17:26:39.562Z,12.37
2022-10-22T17:29:09.262Z,12.33
2022-10-22T17:31:39.571Z,12.31
2022-10-22T17:34:16.541Z,12.28
2022-10-22T17:36:45.368Z,12.27
2022-10-22T17:39:18.479Z,12.23
2022-10-22T17:41:47.671Z,12.21
2022-10-22T17:44:16.332Z,12.17
2022-10-22T17:46:48.064Z,12.14
2022-10-22T17:49:19.586Z,12.11
2022-10-22T17:51:48.694Z,12.10
2022-10-22T17:54:17.566Z,12.06
2022-10-22T17:56:45.638Z,12.04
2022-10-22T17:59:15.939Z,11.98
2022-10-22T18:01:47.121Z,11.95
2022-10-22T18:04:19.809Z,11.95
2022-10-22T18:06:48.373Z,11.93
2022-10-22T18:09:19.148Z,11.88
2022-10-22T18:11:49.752Z,11.86
2022-10-22T18:14:19.181Z,11.82
2022-10-22T18:16:48.241Z,11.81
2022-10-22T18:19:23.300Z,11.76
2022-10-22T18:21:53.706Z,11.74
2022-10-22T18:24:21.613Z,11.72
2022-10-22T18:26:50.463Z,11.69
2022-10-22T18:29:19.840Z,11.65
2022-10-22T18:31:49.437Z,11.64
2022-10-22T18:34:37.804Z,11.63
2022-10-22T18:37:09.047Z,11.61
2022-10-22T18:39:36.848Z,11.56
2022-10-22T18:42:07.489Z,11.53
2022-10-22T18:44:38.063Z,11.53
2022-10-22T18:47:07.274Z,11.51
2022-10-22T18:49:36.522Z,11.48
2022-10-22T18:52:06.027Z,11.45
2022-10-22T18:54:33.924Z,11.41
2022-10-22T18:57:04.341Z,11.37
2022-10-22T18:59:33.538Z,11.34
2022-10-22T19:02:01.808Z,11.31
2022-10-22T19:04:37.249Z,11.30
2022-10-22T19:09:37.221Z,11.25
2022-10-22T19:12:05.438Z,11.23
2022-10-22T19:14:33.701Z,11.19
2022-10-22T19:17:02.281Z,11.18
2022-10-22T19:19:30.596Z,11.16
2022-10-22T19:22:01.495Z,11.10
2022-10-22T19:24:29.984Z,11.06
2022-10-22T19:26:58.610Z,11.04
2022-10-22T19:29:26.109Z,11.02
2022-10-22T19:31:54.242Z,11.03
2022-10-22T19:34:22.166Z,11.04
2022-10-22T19:36:51.935Z,11.00
2022-10-22T19:39:20.776Z,10.97
2022-10-22T19:41:48.510Z,10.96
2022-10-22T19:44:17.034Z,10.92
2022-10-22T19:46:45.608Z,10.90
2022-10-22T19:49:16.537Z,10.83
2022-10-22T19:51:47.034Z,10.84
2022-10-22T19:54:18.647Z,10.83
2022-10-22T19:56:47.745Z,10.80
2022-10-22T19:59:18.993Z,10.79
2022-10-22T20:01:46.791Z,10.76
2022-10-22T20:04:18.191Z,10.72
2022-10-22T20:06:46.549Z,10.72
2022-10-22T20:09:14.568Z,10.72
2022-10-22T20:11:42.787Z,10.68
2022-10-22T20:14:10.429Z,10.67
2022-10-22T20:16:38.780Z,10.67
2022-10-22T20:19:07.957Z,10.64
2022-10-22T20:21:35.391Z,10.64
2022-10-22T20:24:03.124Z,10.59
2022-10-22T20:26:31.684Z,10.58
2022-10-22T20:28:59.521Z,10.56
2022-10-22T20:31:28.957Z,10.54
2022-10-22T20:34:01.742Z,10.51
2022-10-22T20:36:30.901Z,10.47
2022-10-22T20:39:01.295Z,10.44
2022-10-22T20:41:29.710Z,10.43
2022-10-22T20:43:58.433Z,10.44
2022-10-22T20:46:31.807Z,10.42
2022-10-22T20:49:06.427Z,10.39
2022-10-22T20:51:35.953Z,10.38
2022-10-22T20:54:03.952Z,10.37
2022-10-22T20:56:32.182Z,10.32
2022-10-22T20:59:05.961Z,10.28
2022-10-22T21:01:34.187Z,10.27
2022-10-22T21:04:01.513Z,10.26
2022-10-22T21:06:29.462Z,10.26
2022-10-22T21:08:56.295Z,10.26
2022-10-22T21:11:23.520Z,10.24
2022-10-22T21:13:50.709Z,10.23
2022-10-22T21:16:18.724Z,10.19
2022-10-22T21:18:46.863Z,10.20
2022-10-22T21:21:13.791Z,10.15
2022-10-22T21:23:40.484Z,10.14
2022-10-22T21:26:07.214Z,10.13
2022-10-22T21:28:35.690Z,10.11
2022-10-22T21:31:09.863Z,10.09
2022-10-22T21:33:38.770Z,10.06
2022-10-22T21:36:06.943Z,10.03
2022-10-22T21:38:34.764Z,10.01
2022-10-22T21:41:06.566Z,10.01
2022-10-22T21:43:34.284Z,9.99
2022-10-22T21:46:12.834Z,9.98
2022-10-22T21:48:40.624Z,9.95
2022-10-22T21:51:18.971Z,9.91
2022-10-22T21:53:46.434Z,9.89
2022-10-22T21:56:18.686Z,9.86
2022-10-22T21:58:45.490Z,9.84
2022-10-22T22:01:13.782Z,9.85
2022-10-22T22:03:46.331Z,9.84
2022-10-22T22:06:13.591Z,9.81
2022-10-22T22:08:40.880Z,9.81
2022-10-22T22:11:13.367Z,9.79
2022-10-22T22:13:40.651Z,9.77
2022-10-22T22:16:10.728Z,9.77
2022-10-22T22:18:38.314Z,9.73
2022-10-22T22:21:08.257Z,9.73
2022-10-22T22:23:38.625Z,9.71
2022-10-22T22:26:06.175Z,9.66
2022-10-22T22:28:33.515Z,9.66
2022-10-22T22:31:00.856Z,9.65
2022-10-22T22:33:28.071Z,9.64
2022-10-22T22:35:59.444Z,9.59
2022-10-22T22:38:26.131Z,9.58
2022-10-22T22:40:52.877Z,9.58
2022-10-22T22:43:19.721Z,9.55
2022-10-22T22:45:46.636Z,9.52
2022-10-22T22:48:13.355Z,9.51
2022-10-22T22:50:40.002Z,9.49
2022-10-22T22:53:06.674Z,9.47
2022-10-22T22:55:33.389Z,9.46
2022-10-22T22:58:00.098Z,9.44
2022-10-22T23:00:26.914Z,9.43
2022-10-22T23:02:55.461Z,9.38
2022-10-22T23:05:22.513Z,9.38
2022-10-22T23:07:49.302Z,9.37
2022-10-22T23:10:16.160Z,9.35
2022-10-22T23:12:43.316Z,9.33
2022-10-22T23:15:10.825Z,9.34
2022-10-22T23:17:38.562Z,9.31
2022-10-22T23:20:06.060Z,9.28
2022-10-22T23:22:32.880Z,9.28
2022-10-22T23:24:59.612Z,9.22
2022-10-22T23:27:26.295Z,9.22
2022-10-22T23:29:52.948Z,9.19
2022-10-22T23:32:19.839Z,9.19
2022-10-22T23:34:46.672Z,9.17
2022-10-22T23:37:13.457Z,9.16
2022-10-22T23:39:40.226Z,9.16
2022-10-22T23:42:06.978Z,9.11
2022-10-22T23:44:33.735Z,9.11
2022-10-22T23:47:00.476Z,9.10
2022-10-22T23:49:27.291Z,9.01
2022-10-22T23:51:53.987Z,9.00
2022-10-22T23:54:20.732Z,9.05
2022-10-22T23:56:47.481Z,9.01
